createdAt,value
2023-04-11T00:00:30.693Z,2.00
2023-04-11T00:03:02.808Z,3.13
2023-04-11T00:05:33.674Z,2.73
2023-04-11T00:08:03.574Z,1.67
2023-04-11T00:10:36.546Z,3.57
2023-04-11T00:13:10.347Z,2.70
2023-04-11T00:15:42.428Z,3.27
2023-04-11T00:18:15.922Z,2.90
2023-04-11T00:20:46.475Z,3.10
2023-04-11T00:23:14.841Z,2.60
2023-04-11T00:25:43.104Z,1.93
2023-04-11T00:28:14.870Z,2.80
2023-04-11T00:30:45.164Z,4.07
2023-04-11T00:33:14.441Z,3.63
2023-04-11T00:35:44.882Z,3.80
2023-04-11T00:38:15.597Z,3.50
2023-04-11T00:40:46.234Z,2.77
2023-04-11T00:43:18.225Z,3.47
2023-04-11T00:45:52.733Z,3.90
2023-04-11T00:48:25.222Z,3.23
2023-04-11T00:50:52.450Z,5.40
2023-04-11T00:53:22.767Z,3.30
2023-04-11T00:55:54.377Z,4.20
2023-04-11T00:58:26.672Z,3.77
2023-04-11T01:00:55.284Z,2.70
2023-04-11T01:03:27.360Z,3.77
2023-04-11T01:05:55.914Z,3.83
2023-04-11T01:08:26.852Z,4.20
2023-04-11T01:11:02.025Z,5.20
2023-04-11T01:13:31.553Z,3.37
2023-04-11T01:16:03.508Z,3.13
2023-04-11T01:18:31.297Z,4.10
2023-04-11T01:21:03.107Z,3.53
2023-04-11T01:23:34.768Z,4.90
2023-04-11T01:26:01.932Z,4.60
2023-04-11T01:28:29.817Z,5.17
2023-04-11T01:31:01.373Z,3.87
2023-04-11T01:33:33.893Z,5.07
2023-04-11T01:36:03.154Z,5.17
2023-04-11T01:38:34.544Z,3.73
2023-04-11T01:41:03.263Z,5.20
2023-04-11T01:43:33.209Z,3.13
2023-04-11T01:46:02.547Z,4.40
2023-04-11T01:48:33.908Z,5.73
2023-04-11T01:51:04.455Z,4.20
2023-04-11T01:53:36.353Z,3.37
2023-04-11T01:56:07.187Z,3.83
2023-04-11T01:58:39.259Z,5.30
2023-04-11T02:01:09.671Z,4.17
2023-04-11T02:03:42.005Z,6.13
2023-04-11T02:06:12.383Z,4.70
2023-04-11T02:08:44.058Z,7.07
2023-04-11T02:11:16.387Z,5.63
2023-04-11T02:13:49.180Z,4.83
2023-04-11T02:16:20.870Z,5.27
2023-04-11T02:18:52.186Z,4.80
2023-04-11T02:21:23.255Z,4.47
2023-04-11T02:23:54.934Z,4.43
2023-04-11T02:26:27.104Z,4.47
2023-04-11T02:28:58.624Z,4.93
2023-04-11T02:31:28.491Z,4.57
2023-04-11T02:34:00.548Z,4.90
2023-04-11T02:36:31.036Z,5.70
2023-04-11T02:39:01.266Z,3.63
2023-04-11T02:41:32.098Z,4.53
2023-04-11T02:44:02.528Z,5.40
2023-04-11T02:46:31.499Z,6.03
2023-04-11T02:49:03.276Z,3.73
2023-04-11T02:51:35.833Z,6.90
2023-04-11T02:54:08.156Z,4.70
2023-04-11T02:56:41.770Z,7.57
2023-04-11T02:59:12.986Z,5.37
2023-04-11T03:01:41.696Z,4.90
2023-04-11T03:04:10.848Z,5.13
2023-04-11T03:06:41.537Z,5.00
2023-04-11T03:09:13.194Z,6.67
2023-04-11T03:11:46.904Z,7.10
2023-04-11T03:14:18.881Z,5.37
2023-04-11T03:16:47.985Z,9.80
2023-04-11T03:19:18.341Z,4.83
2023-04-11T03:21:47.099Z,6.23
2023-04-11T03:24:15.827Z,7.83
2023-04-11T03:26:42.818Z,8.43
2023-04-11T03:29:17.159Z,5.83
2023-04-11T03:31:53.610Z,5.53
2023-04-11T03:34:22.919Z,6.40
2023-04-11T03:36:54.479Z,5.83
2023-04-11T03:39:28.125Z,5.67
2023-04-11T03:41:58.848Z,7.37
2023-04-11T03:44:29.929Z,4.63
2023-04-11T03:47:01.549Z,6.67
2023-04-11T03:49:32.400Z,7.37
2023-04-11T03:52:13.869Z,5.93
2023-04-11T03:54:42.114Z,5.67
2023-04-11T03:57:12.663Z,6.50
2023-04-11T03:59:42.116Z,4.17
2023-04-11T04:02:10.294Z,5.37
2023-04-11T04:04:41.525Z,9.23
2023-04-11T04:07:12.897Z,5.80
2023-04-11T04:09:43.791Z,7.47
2023-04-11T04:12:14.957Z,7.20
2023-04-11T04:14:45.685Z,6.70
2023-04-11T04:17:19.454Z,5.17
2023-04-11T04:19:58.450Z,4.67
2023-04-11T04:22:29.005Z,5.03
2023-04-11T04:24:59.122Z,8.07
2023-04-11T04:27:29.001Z,6.13
2023-04-11T04:30:03.379Z,9.23
2023-04-11T04:32:31.473Z,5.73
2023-04-11T04:35:01.520Z,5.73
2023-04-11T04:37:30.854Z,5.20
2023-04-11T04:43:18.627Z,7.97
2023-04-11T04:45:47.849Z,4.83
2023-04-11T04:48:22.544Z,5.47
2023-04-11T04:50:53.473Z,5.40
2023-04-11T04:53:23.522Z,5.90
2023-04-11T04:55:53.586Z,4.50
2023-04-11T04:58:24.114Z,7.00
2023-04-11T05:01:00.743Z,4.83
2023-04-11T05:03:29.219Z,5.80
2023-04-11T05:06:01.808Z,2.70
2023-04-11T05:08:31.034Z,5.80
2023-04-11T05:11:01.121Z,5.73
2023-04-11T05:13:30.692Z,6.37
2023-04-11T05:16:03.830Z,4.60
2023-04-11T05:18:34.073Z,6.17
2023-04-11T05:21:04.952Z,4.07
2023-04-11T05:23:37.181Z,5.80
2023-04-11T05:26:08.695Z,7.53
2023-04-11T05:28:37.967Z,6.60
2023-04-11T05:31:08.710Z,5.70
2023-04-11T05:33:38.467Z,5.00
2023-04-11T05:36:10.945Z,5.70
2023-04-11T05:38:43.162Z,4.97
2023-04-11T05:41:15.321Z,8.73
2023-04-11T05:43:47.060Z,5.93
2023-04-11T05:46:18.264Z,8.33
2023-04-11T05:48:47.119Z,5.63
2023-04-11T05:51:13.878Z,6.27
2023-04-11T05:53:46.950Z,8.50
2023-04-11T05:56:19.667Z,4.37
2023-04-11T05:58:50.967Z,6.50
2023-04-11T06:01:26.784Z,3.30
2023-04-11T06:03:57.633Z,5.27
2023-04-11T06:06:28.242Z,3.80
2023-04-11T06:08:57.487Z,5.83
2023-04-11T06:11:31.205Z,6.67
2023-04-11T06:14:02.309Z,6.60
2023-04-11T06:16:34.248Z,4.90
2023-04-11T06:19:05.831Z,5.37
2023-04-11T06:21:38.381Z,4.80
2023-04-11T06:24:11.756Z,4.17
2023-04-11T06:26:52.704Z,5.07
2023-04-11T06:29:26.251Z,5.70
2023-04-11T06:31:55.426Z,6.20
2023-04-11T06:34:30.262Z,5.47
2023-04-11T06:37:01.693Z,6.93
2023-04-11T06:39:33.588Z,10.13
2023-04-11T06:42:04.239Z,6.23
2023-04-11T06:44:33.195Z,8.63
2023-04-11T06:47:05.281Z,7.13
2023-04-11T06:49:37.533Z,12.03
2023-04-11T06:52:09.563Z,22.00
2023-04-11T06:54:37.802Z,31.97
2023-04-11T06:57:09.114Z,31.07
2023-04-11T06:59:41.766Z,34.67
2023-04-11T07:02:15.565Z,34.27
2023-04-11T07:04:46.432Z,30.57
2023-04-11T07:07:14.647Z,26.53
2023-04-11T07:09:45.914Z,30.87
2023-04-11T07:12:16.226Z,32.10
2023-04-11T07:14:45.633Z,25.27
2023-04-11T07:17:15.394Z,26.53
2023-04-11T07:19:46.712Z,29.83
2023-04-11T07:22:18.195Z,22.97
2023-04-11T07:24:53.838Z,25.70
2023-04-11T07:27:23.834Z,24.47
2023-04-11T07:29:52.953Z,23.47
2023-04-11T07:32:23.019Z,16.77
2023-04-11T07:34:59.500Z,21.17
2023-04-11T07:37:34.677Z,24.50
2023-04-11T07:40:11.388Z,15.47
2023-04-11T07:42:39.970Z,16.13
2023-04-11T07:45:10.728Z,16.70
2023-04-11T07:47:39.096Z,16.87
2023-04-11T07:50:14.354Z,12.93
2023-04-11T07:52:46.033Z,12.13
2023-04-11T07:55:14.900Z,13.23
2023-04-11T07:57:45.175Z,14.87
2023-04-11T08:00:29.324Z,13.80
2023-04-11T08:03:16.105Z,11.63
2023-04-11T08:05:50.436Z,11.17
2023-04-11T08:08:23.200Z,11.47
2023-04-11T08:10:54.701Z,11.87
2023-04-11T08:13:26.195Z,9.77
2023-04-11T08:15:59.012Z,12.87
2023-04-11T08:18:32.963Z,11.93
2023-04-11T08:21:02.074Z,9.80
2023-04-11T08:23:36.481Z,11.30
2023-04-11T08:28:46.397Z,7.57
2023-04-11T08:31:18.374Z,11.43
2023-04-11T08:33:46.652Z,8.77
2023-04-11T08:36:15.454Z,10.17
2023-04-11T08:38:45.094Z,8.40
2023-04-11T08:41:17.193Z,14.40
2023-04-11T08:43:48.399Z,6.30
2023-04-11T08:46:21.318Z,7.27
2023-04-11T08:48:54.053Z,7.10
2023-04-11T08:51:30.089Z,6.23
2023-04-11T08:54:21.658Z,5.27
2023-04-11T08:56:53.271Z,6.50
2023-04-11T08:59:24.107Z,8.47
2023-04-11T09:02:05.358Z,7.40
2023-04-11T09:04:45.947Z,5.93
2023-04-11T09:07:27.080Z,7.57
2023-04-11T09:09:58.527Z,6.30
2023-04-11T09:12:31.356Z,5.40
2023-04-11T09:15:19.778Z,7.07
2023-04-11T09:17:47.981Z,5.17
2023-04-11T09:20:33.588Z,7.43
2023-04-11T09:23:03.189Z,3.80
2023-04-11T09:25:32.035Z,8.33
2023-04-11T09:28:14.039Z,56.90
2023-04-11T09:30:54.106Z,29.60
2023-04-11T09:33:23.327Z,20.33
2023-04-11T09:35:59.405Z,13.00
2023-04-11T09:38:37.437Z,13.53
2023-04-11T09:41:07.283Z,15.37
2023-04-11T09:43:54.713Z,15.07
2023-04-11T09:46:27.943Z,9.03
2023-04-11T09:48:59.963Z,8.43
2023-04-11T09:54:28.300Z,10.87
2023-04-11T09:56:57.097Z,6.93
2023-04-11T09:59:33.736Z,7.07
2023-04-11T10:02:03.605Z,4.60
2023-04-11T10:04:34.840Z,6.70
2023-04-11T10:07:20.928Z,4.47
2023-04-11T10:09:50.454Z,6.83
2023-04-11T10:12:32.341Z,5.67
2023-04-11T10:15:11.439Z,5.27
2023-04-11T10:17:44.926Z,5.17
2023-04-11T10:20:31.592Z,6.00
2023-04-11T10:23:12.787Z,3.90
2023-04-11T10:26:16.467Z,6.60
2023-04-11T10:28:46.032Z,7.27
2023-04-11T10:31:20.153Z,6.73
2023-04-11T10:34:15.563Z,5.23
2023-04-11T10:37:14.699Z,4.80
2023-04-11T10:40:12.596Z,5.53
2023-04-11T10:42:47.881Z,7.33
2023-04-11T10:45:30.085Z,4.13
2023-04-11T10:48:14.511Z,4.80
2023-04-11T10:50:49.853Z,6.37
2023-04-11T10:53:38.038Z,3.50
2023-04-11T10:56:11.390Z,5.97
2023-04-11T10:58:40.497Z,4.23
2023-04-11T11:01:32.270Z,4.00
2023-04-11T11:04:21.156Z,5.57
2023-04-11T11:06:57.639Z,6.20
2023-04-11T11:09:30.984Z,11.40
2023-04-11T11:12:21.191Z,4.77
2023-04-11T11:14:57.146Z,5.63
2023-04-11T11:17:28.015Z,4.77
2023-04-11T11:19:59.335Z,4.73
2023-04-11T11:22:29.362Z,3.97
2023-04-11T11:25:10.990Z,7.13
2023-04-11T11:27:42.009Z,3.60
2023-04-11T11:30:20.324Z,5.80
2023-04-11T11:32:54.555Z,3.97
2023-04-11T11:35:26.447Z,4.07
2023-04-11T11:37:57.283Z,4.07
2023-04-11T11:40:28.805Z,5.70
2023-04-11T11:42:58.194Z,5.57
2023-04-11T11:45:30.716Z,5.10
2023-04-11T11:48:00.611Z,4.03
2023-04-11T11:50:35.599Z,3.13
2023-04-11T11:53:18.605Z,6.47
2023-04-11T11:55:50.253Z,4.57
2023-04-11T11:58:22.105Z,4.33
2023-04-11T12:00:54.210Z,5.83
2023-04-11T12:03:32.088Z,5.00
2023-04-11T12:06:04.433Z,5.30
2023-04-11T12:08:36.113Z,6.80
2023-04-11T12:11:12.388Z,8.83
2023-04-11T12:13:48.800Z,4.03
2023-04-11T12:16:22.948Z,2.97
2023-04-11T12:18:51.090Z,2.63
2023-04-11T12:21:23.246Z,4.30
2023-04-11T12:23:56.942Z,4.83
2023-04-11T12:26:26.245Z,6.23
2023-04-11T12:28:56.703Z,3.93
2023-04-11T12:31:30.073Z,3.73
2023-04-11T12:34:01.803Z,3.50
2023-04-11T12:39:04.078Z,2.30
2023-04-11T12:41:32.758Z,2.97
2023-04-11T12:44:03.324Z,2.70
2023-04-11T12:46:36.561Z,4.43
2023-04-11T12:49:09.368Z,3.17
2023-04-11T12:51:41.180Z,4.40
2023-04-11T12:54:16.173Z,2.80
2023-04-11T12:56:46.339Z,1.90
2023-04-11T12:59:17.002Z,3.60
2023-04-11T13:01:44.309Z,1.97
2023-04-11T13:04:15.331Z,2.03
2023-04-11T13:06:48.392Z,4.67
2023-04-11T13:09:19.120Z,2.50
2023-04-11T13:11:51.533Z,2.70
2023-04-11T13:14:22.381Z,2.77
2023-04-11T13:16:54.184Z,3.33
2023-04-11T13:19:29.341Z,2.87
2023-04-11T13:22:00.980Z,4.53
2023-04-11T13:24:30.960Z,3.80
2023-04-11T13:27:10.435Z,1.53
2023-04-11T13:29:39.940Z,1.33
2023-04-11T13:32:10.438Z,1.93
2023-04-11T13:34:43.418Z,3.37
2023-04-11T13:37:15.376Z,2.17
2023-04-11T13:39:45.347Z,5.90
2023-04-11T13:42:16.286Z,2.00
2023-04-11T13:44:44.314Z,4.37
2023-04-11T13:47:15.732Z,3.57
2023-04-11T13:49:47.002Z,2.80
2023-04-11T13:52:20.540Z,4.50
2023-04-11T13:54:59.743Z,2.37
2023-04-11T13:57:31.578Z,2.20
2023-04-11T14:00:03.714Z,6.57
2023-04-11T14:02:32.646Z,9.87
2023-04-11T14:05:04.822Z,4.13
2023-04-11T14:07:33.169Z,3.30
2023-04-11T14:10:02.360Z,2.27
2023-04-11T14:12:32.830Z,3.53
2023-04-11T14:15:04.056Z,2.27
2023-04-11T14:17:35.302Z,3.93
2023-04-11T14:20:10.951Z,3.43
2023-04-11T14:22:41.271Z,1.60
2023-04-11T14:25:13.699Z,1.83
2023-04-11T14:27:46.052Z,1.80
2023-04-11T14:30:17.522Z,2.90
2023-04-11T14:32:48.703Z,5.67
2023-04-11T14:35:33.990Z,3.13
2023-04-11T14:38:06.992Z,3.10
2023-04-11T14:40:34.873Z,2.87
2023-04-11T14:43:04.712Z,3.53
2023-04-11T14:45:35.802Z,2.20
2023-04-11T14:48:06.089Z,1.83
2023-04-11T14:50:37.092Z,3.83
2023-04-11T14:53:11.558Z,3.90
2023-04-11T14:55:46.789Z,1.20
2023-04-11T14:58:16.495Z,4.90
2023-04-11T15:00:47.810Z,2.67
2023-04-11T15:03:19.365Z,1.90
2023-04-11T15:05:51.934Z,2.23
2023-04-11T15:08:23.555Z,2.43
2023-04-11T15:10:56.042Z,2.87
2023-04-11T15:13:23.633Z,3.07
2023-04-11T15:15:57.198Z,1.40
2023-04-11T15:18:32.154Z,1.80
2023-04-11T15:21:02.597Z,3.67
2023-04-11T15:23:34.580Z,3.20
2023-04-11T15:26:06.766Z,3.53
2023-04-11T15:28:37.099Z,1.33
2023-04-11T15:31:11.922Z,3.30
2023-04-11T15:33:43.881Z,3.10
2023-04-11T15:36:14.221Z,3.37
2023-04-11T15:38:48.703Z,1.93
2023-04-11T15:41:19.661Z,3.70
2023-04-11T15:43:50.907Z,1.80
2023-04-11T15:46:20.941Z,2.27
2023-04-11T15:48:51.932Z,3.53
2023-04-11T15:51:22.011Z,2.30
2023-04-11T15:53:53.459Z,1.87
2023-04-11T15:56:24.298Z,2.37
2023-04-11T15:58:55.682Z,2.90
2023-04-11T16:01:28.346Z,2.93
2023-04-11T16:03:56.775Z,2.27
2023-04-11T16:06:28.612Z,2.30
2023-04-11T16:08:57.712Z,2.17
2023-04-11T16:11:29.758Z,2.47
2023-04-11T16:13:58.286Z,2.17
2023-04-11T16:16:31.006Z,3.47
2023-04-11T16:19:04.046Z,2.80
2023-04-11T16:21:34.923Z,3.33
2023-04-11T16:24:06.672Z,3.03
2023-04-11T16:26:38.276Z,4.10
2023-04-11T16:31:51.227Z,2.00
2023-04-11T16:34:20.352Z,2.87
2023-04-11T16:36:51.366Z,3.53
2023-04-11T16:39:22.096Z,4.53
2023-04-11T16:41:55.557Z,3.03
2023-04-11T16:44:25.851Z,2.83
2023-04-11T16:46:56.406Z,2.00
2023-04-11T16:49:27.784Z,2.97
2023-04-11T16:51:59.748Z,3.50
2023-04-11T16:54:31.198Z,1.83
2023-04-11T16:57:05.803Z,3.67
2023-04-11T16:59:34.511Z,4.57
2023-04-11T17:02:05.232Z,5.00
2023-04-11T17:04:33.538Z,4.43
2023-04-11T17:07:06.551Z,2.77
2023-04-11T17:09:37.965Z,3.60
2023-04-11T17:12:08.680Z,2.33
2023-04-11T17:14:40.229Z,3.50
2023-04-11T17:17:10.360Z,4.33
2023-04-11T17:19:39.397Z,2.37
2023-04-11T17:22:10.512Z,2.40
2023-04-11T17:24:41.446Z,2.17
2023-04-11T17:27:17.350Z,2.20
2023-04-11T17:29:47.707Z,2.93
2023-04-11T17:32:19.277Z,3.97
2023-04-11T17:34:50.448Z,2.50
2023-04-11T17:37:22.843Z,1.43
2023-04-11T17:39:51.546Z,2.37
2023-04-11T17:42:21.782Z,2.07
2023-04-11T17:44:58.900Z,2.47
2023-04-11T17:47:35.393Z,3.40
2023-04-11T17:50:08.297Z,3.20
2023-04-11T17:52:44.958Z,3.67
2023-04-11T17:55:15.810Z,3.20
2023-04-11T17:57:54.143Z,3.83
2023-04-11T18:00:29.320Z,3.77
2023-04-11T18:03:03.850Z,2.60
2023-04-11T18:05:37.366Z,2.13
2023-04-11T18:08:07.635Z,2.93
2023-04-11T18:10:38.398Z,2.67
2023-04-11T18:13:08.701Z,2.77
2023-04-11T18:15:40.413Z,2.53
2023-04-11T18:18:17.141Z,2.50
2023-04-11T18:21:17.668Z,2.27
2023-04-11T18:26:28.031Z,3.13
2023-04-11T18:29:04.552Z,3.97
2023-04-11T18:31:38.884Z,2.83
2023-04-11T18:34:11.704Z,1.93
2023-04-11T18:36:41.697Z,2.83
2023-04-11T18:39:11.082Z,4.57
2023-04-11T18:41:43.061Z,2.10
2023-04-11T18:44:13.946Z,1.47
2023-04-11T18:46:46.032Z,3.57
2023-04-11T18:49:18.002Z,4.53
2023-04-11T18:51:51.122Z,2.40
2023-04-11T18:54:25.674Z,5.00
2023-04-11T18:59:24.878Z,3.23
2023-04-11T19:01:57.204Z,5.07
2023-04-11T19:04:28.230Z,3.30
2023-04-11T19:07:00.859Z,2.10
2023-04-11T19:09:32.806Z,3.13
2023-04-11T19:12:01.474Z,1.97
2023-04-11T19:14:29.530Z,2.47
2023-04-11T19:16:59.334Z,3.77
2023-04-11T19:19:29.740Z,2.37
2023-04-11T19:21:59.790Z,4.90
2023-04-11T19:24:32.653Z,2.67
2023-04-11T19:27:05.756Z,4.50
2023-04-11T19:29:34.621Z,2.13
2023-04-11T19:32:07.053Z,2.93
2023-04-11T19:34:38.652Z,3.37
2023-04-11T19:37:11.426Z,2.87
2023-04-11T19:39:40.574Z,4.73
2023-04-11T19:42:10.196Z,1.93
2023-04-11T19:44:49.593Z,2.80
2023-04-11T19:47:22.071Z,4.07
2023-04-11T19:49:53.925Z,3.03
2023-04-11T19:52:24.933Z,3.93
2023-04-11T19:54:56.015Z,2.30
2023-04-11T19:57:26.422Z,2.67
2023-04-11T19:59:55.755Z,2.60
2023-04-11T20:02:29.338Z,3.77
2023-04-11T20:05:00.567Z,3.40
2023-04-11T20:07:32.045Z,1.90
2023-04-11T20:10:01.914Z,3.47
2023-04-11T20:12:32.205Z,2.27
2023-04-11T20:15:02.306Z,1.50
2023-04-11T20:17:43.747Z,3.03
2023-04-11T20:20:15.770Z,3.43
2023-04-11T20:22:47.458Z,2.43
2023-04-11T20:25:19.379Z,2.27
2023-04-11T20:27:47.896Z,3.00
2023-04-11T20:30:17.386Z,2.13
2023-04-11T20:32:47.110Z,2.70
2023-04-11T20:35:16.711Z,2.97
2023-04-11T20:37:50.476Z,2.53
2023-04-11T20:40:27.259Z,3.03
2023-04-11T20:42:59.960Z,4.63
2023-04-11T20:45:30.583Z,4.57
2023-04-11T20:50:50.324Z,6.13
2023-04-11T20:53:21.946Z,2.90
2023-04-11T20:55:52.710Z,4.27
2023-04-11T20:58:21.277Z,4.27
2023-04-11T21:00:53.092Z,2.53
2023-04-11T21:06:09.586Z,3.43
2023-04-11T21:08:43.583Z,3.20
2023-04-11T21:11:10.488Z,4.23
2023-04-11T21:13:42.008Z,2.30
2023-04-11T21:16:15.238Z,2.07
2023-04-11T21:18:46.822Z,3.80
2023-04-11T21:21:18.962Z,2.33
2023-04-11T21:23:46.058Z,3.43
2023-04-11T21:26:15.687Z,2.50
2023-04-11T21:28:46.284Z,7.20
2023-04-11T21:31:15.558Z,1.50
2023-04-11T21:33:49.202Z,4.73
2023-04-11T21:36:21.140Z,2.57
2023-04-11T21:38:52.831Z,3.13
2023-04-11T21:41:19.788Z,4.23
2023-04-11T21:43:49.723Z,2.17
2023-04-11T21:46:17.546Z,5.90
2023-04-11T21:48:46.391Z,3.90
2023-04-11T21:51:20.080Z,3.77
2023-04-11T21:53:50.006Z,3.07
2023-04-11T21:56:16.961Z,2.87
2023-04-11T21:58:48.936Z,2.17
2023-04-11T22:01:23.630Z,2.73
2023-04-11T22:03:57.107Z,2.57
2023-04-11T22:06:29.638Z,3.17
2023-04-11T22:09:00.574Z,2.53
2023-04-11T22:11:31.927Z,1.53
2023-04-11T22:14:03.850Z,2.10
2023-04-11T22:16:37.175Z,2.10
2023-04-11T22:19:11.025Z,2.03
2023-04-11T22:21:39.448Z,1.97
2023-04-11T22:24:11.478Z,3.40
2023-04-11T22:29:27.403Z,3.53
2023-04-11T22:32:08.393Z,1.90
2023-04-11T22:34:38.877Z,4.17
2023-04-11T22:37:09.452Z,3.50
2023-04-11T22:39:41.069Z,2.83
2023-04-11T22:42:10.695Z,2.27
2023-04-11T22:44:40.915Z,1.87
2023-04-11T22:47:29.333Z,5.13
2023-04-11T22:49:58.433Z,3.90
2023-04-11T22:52:32.929Z,2.60
2023-04-11T22:55:04.388Z,2.83
2023-04-11T22:57:36.956Z,4.03
2023-04-11T23:00:09.886Z,3.43
2023-04-11T23:02:43.182Z,2.73
2023-04-11T23:05:13.987Z,3.07
2023-04-11T23:07:45.698Z,3.17
2023-04-11T23:10:16.389Z,1.50
2023-04-11T23:12:47.802Z,2.63
2023-04-11T23:15:19.075Z,2.67
2023-04-11T23:17:49.274Z,2.83
2023-04-11T23:20:25.231Z,2.93
2023-04-11T23:22:58.149Z,1.83
2023-04-11T23:25:26.787Z,4.60
2023-04-11T23:28:15.115Z,2.03
2023-04-11T23:30:45.240Z,3.57
2023-04-11T23:33:16.468Z,1.67
2023-04-11T23:35:48.401Z,2.50
2023-04-11T23:38:16.651Z,1.97
2023-04-11T23:40:48.498Z,2.90
2023-04-11T23:43:18.970Z,3.47
2023-04-11T23:45:53.158Z,3.40
2023-04-11T23:48:25.602Z,3.67
2023-04-11T23:50:59.347Z,2.50
2023-04-11T23:53:36.233Z,2.33
2023-04-11T23:56:06.209Z,1.60
2023-04-11T23:58:38.487Z,2.73
